Terminal Aerodrome Forecast
Issued by NWS

Home | Current Version | Previous Version | Text Only | Print | Product List | Glossary On
Versions: 1 2 3 4 5 6 7 8 9 10 11 12 13 14 15 16 17 18 19 20 21 22 23 24 25
000
FTUS43 KDLH 242342
TAFBRD
TAF
KBRD 242342Z 2500/2524 28009G14KT P6SM BKN060
     FM250130 29005KT P6SM SCT060
     FM251600 29012G20KT P6SM SCT050
     FM252300 28007KT P6SM SCT060=

USA.gov is the U.S. government's official web portal to all federal, state and local government web resources and services.